createdAt,value
2022-09-07T00:00:53.707Z,3.10
2022-09-07T00:03:20.641Z,2.80
2022-09-07T00:05:49.944Z,2.97
2022-09-07T00:08:19.485Z,3.28
2022-09-07T00:11:02.317Z,3.10
2022-09-07T00:13:35.060Z,2.90
2022-09-07T00:16:06.786Z,2.90
2022-09-07T00:18:33.883Z,3.33
2022-09-07T00:21:02.422Z,2.70
2022-09-07T00:23:32.539Z,3.08
2022-09-07T00:26:05.093Z,2.80
2022-09-07T00:28:34.433Z,3.00
2022-09-07T00:31:01.245Z,3.63
2022-09-07T00:33:28.168Z,3.55
2022-09-07T00:35:55.146Z,3.30
2022-09-07T00:38:24.228Z,4.03
2022-09-07T00:40:50.887Z,3.30
2022-09-07T00:43:39.548Z,3.80
2022-09-07T00:46:12.294Z,3.40
2022-09-07T00:48:42.464Z,3.53
2022-09-07T00:51:14.867Z,3.50
2022-09-07T00:53:44.743Z,3.33
2022-09-07T00:56:15.203Z,3.28
2022-09-07T00:58:46.801Z,3.00
2022-09-07T01:01:17.338Z,2.92
2022-09-07T01:03:48.904Z,2.55
2022-09-07T01:06:26.626Z,2.80
2022-09-07T01:08:55.307Z,2.90
2022-09-07T01:11:23.368Z,2.80
2022-09-07T01:13:52.387Z,2.97
2022-09-07T01:16:57.807Z,3.25
2022-09-07T01:19:29.454Z,2.85
2022-09-07T01:22:17.306Z,2.90
2022-09-07T01:24:55.259Z,3.17
2022-09-07T01:27:37.002Z,3.42
2022-09-07T01:30:13.081Z,2.83
2022-09-07T01:33:10.723Z,3.33
2022-09-07T01:35:40.578Z,2.92
2022-09-07T01:38:28.650Z,3.05
2022-09-07T01:41:15.548Z,2.58
2022-09-07T01:44:14.417Z,2.65
2022-09-07T01:46:56.868Z,2.60
2022-09-07T01:49:41.682Z,2.70
2022-09-07T01:52:31.029Z,2.80
2022-09-07T01:55:03.703Z,2.88
2022-09-07T01:58:04.649Z,2.60
2022-09-07T02:00:34.262Z,2.78
2022-09-07T02:03:00.853Z,2.92
2022-09-07T02:05:39.062Z,2.95
2022-09-07T02:08:14.025Z,2.60
2022-09-07T02:10:49.038Z,3.10
2022-09-07T02:13:25.289Z,2.83
2022-09-07T02:15:58.348Z,2.67
2022-09-07T02:18:28.720Z,2.80
2022-09-07T02:21:00.275Z,2.70
2022-09-07T02:23:33.139Z,3.33
2022-09-07T02:26:03.993Z,2.60
2022-09-07T02:28:38.340Z,3.30
2022-09-07T02:31:06.262Z,3.03
2022-09-07T02:33:33.182Z,3.03
2022-09-07T02:36:01.735Z,3.25
2022-09-07T02:38:28.660Z,3.22
2022-09-07T02:40:57.336Z,3.40
2022-09-07T02:43:28.092Z,3.40
2022-09-07T02:45:57.668Z,3.40
2022-09-07T02:48:48.586Z,3.67
2022-09-07T02:51:17.858Z,3.22
2022-09-07T02:53:56.560Z,3.75
2022-09-07T02:56:37.043Z,3.28
2022-09-07T02:59:32.242Z,3.20
2022-09-07T03:02:12.952Z,3.33
2022-09-07T03:05:14.712Z,3.25
2022-09-07T03:07:49.236Z,3.47
2022-09-07T03:10:19.052Z,3.47
2022-09-07T03:12:48.124Z,3.35
2022-09-07T03:15:24.247Z,3.20
2022-09-07T03:17:51.677Z,2.97
2022-09-07T03:20:21.414Z,2.92
2022-09-07T03:22:49.871Z,3.72
2022-09-07T03:25:17.552Z,3.50
2022-09-07T03:27:44.539Z,3.58
2022-09-07T03:30:12.893Z,3.75
2022-09-07T03:32:39.542Z,3.72
2022-09-07T03:35:08.209Z,3.97
2022-09-07T03:37:40.564Z,3.97
2022-09-07T03:40:09.642Z,4.03
2022-09-07T03:42:36.833Z,4.40
2022-09-07T03:45:04.181Z,4.35
2022-09-07T03:47:30.880Z,4.32
2022-09-07T03:49:57.630Z,4.70
2022-09-07T03:52:24.177Z,4.00
2022-09-07T03:54:50.726Z,4.70
2022-09-07T03:57:20.342Z,4.60
2022-09-07T03:59:52.426Z,4.38
2022-09-07T04:02:19.350Z,4.13
2022-09-07T04:04:46.183Z,5.20
2022-09-07T04:07:13.339Z,4.22
2022-09-07T04:09:40.109Z,4.75
2022-09-07T04:12:06.826Z,4.43
2022-09-07T04:14:33.433Z,4.40
2022-09-07T04:16:59.995Z,4.78
2022-09-07T04:19:26.556Z,4.65
2022-09-07T04:21:53.361Z,4.63
2022-09-07T04:24:19.907Z,4.93
2022-09-07T04:26:46.412Z,5.07
2022-09-07T04:29:15.235Z,5.70
2022-09-07T04:31:44.128Z,5.53
2022-09-07T04:34:14.383Z,5.10
2022-09-07T04:36:41.005Z,5.18
2022-09-07T04:39:07.567Z,5.70
2022-09-07T04:41:34.970Z,6.25
2022-09-07T04:44:03.646Z,5.93
2022-09-07T04:46:35.675Z,5.85
2022-09-07T04:49:07.183Z,6.10
2022-09-07T04:51:37.481Z,6.85
2022-09-07T04:54:07.344Z,5.82
2022-09-07T04:56:34.039Z,5.60
2022-09-07T04:59:06.175Z,5.88
2022-09-07T05:01:33.299Z,5.72
2022-09-07T05:04:01.293Z,6.38
2022-09-07T05:06:30.784Z,6.20
2022-09-07T05:08:58.703Z,6.32
2022-09-07T05:11:29.060Z,6.53
2022-09-07T05:13:58.203Z,5.97
2022-09-07T05:16:25.457Z,6.03
2022-09-07T05:19:01.616Z,5.88
2022-09-07T05:21:31.363Z,5.82
2022-09-07T05:23:58.826Z,6.88
2022-09-07T05:26:28.549Z,5.78
2022-09-07T05:31:48.299Z,6.32
2022-09-07T05:34:31.387Z,6.57
2022-09-07T05:36:58.583Z,6.30
2022-09-07T05:39:25.656Z,6.50
2022-09-07T05:41:52.271Z,6.97
2022-09-07T05:47:10.880Z,6.68
2022-09-07T05:49:37.622Z,6.63
2022-09-07T05:52:04.205Z,6.85
2022-09-07T05:54:30.787Z,6.30
2022-09-07T05:56:59.792Z,7.18
2022-09-07T05:59:26.330Z,6.80
2022-09-07T06:01:53.001Z,7.47
2022-09-07T06:04:19.670Z,7.57
2022-09-07T06:07:04.661Z,6.45
2022-09-07T06:09:32.940Z,7.88
2022-09-07T06:11:59.980Z,7.55
2022-09-07T06:14:26.544Z,7.50
2022-09-07T06:16:55.589Z,7.70
2022-09-07T06:19:24.787Z,7.95
2022-09-07T06:21:53.504Z,8.02
2022-09-07T06:24:20.003Z,7.97
2022-09-07T06:26:48.793Z,8.90
2022-09-07T06:29:15.440Z,8.65
2022-09-07T06:34:36.027Z,9.07
2022-09-07T06:37:02.575Z,9.00
2022-09-07T06:39:29.095Z,9.30
2022-09-07T06:44:30.393Z,9.57
2022-09-07T06:47:04.666Z,10.07
2022-09-07T06:49:31.727Z,10.18
2022-09-07T06:51:58.267Z,9.27
2022-09-07T06:57:16.048Z,9.82
2022-09-07T06:59:42.674Z,10.63
2022-09-07T07:02:11.526Z,11.95
2022-09-07T07:04:40.806Z,11.68
2022-09-07T07:07:14.346Z,12.02
2022-09-07T07:09:41.618Z,11.32
2022-09-07T07:12:08.835Z,11.68
2022-09-07T07:14:39.875Z,12.00
2022-09-07T07:17:13.054Z,12.05
2022-09-07T07:19:39.583Z,13.88
2022-09-07T07:24:52.780Z,15.48
2022-09-07T07:27:21.581Z,15.85
2022-09-07T07:29:49.259Z,17.30
2022-09-07T07:32:16.161Z,15.02
2022-09-07T07:35:19.846Z,15.48
2022-09-07T07:37:48.291Z,14.43
2022-09-07T07:40:16.597Z,14.13
2022-09-07T07:42:45.133Z,15.48
2022-09-07T07:48:00.469Z,17.00
2022-09-07T07:50:34.615Z,15.20
2022-09-07T07:55:52.209Z,14.80
2022-09-07T07:58:19.679Z,15.13
2022-09-07T08:00:55.829Z,14.48
2022-09-07T08:03:23.478Z,15.45
2022-09-07T08:05:50.432Z,15.48
2022-09-07T08:08:17.024Z,14.35
2022-09-07T08:10:43.704Z,13.70
2022-09-07T08:13:14.189Z,14.20
2022-09-07T08:15:50.702Z,14.43
2022-09-07T08:18:20.854Z,15.05
2022-09-07T08:20:50.192Z,14.90
2022-09-07T08:23:20.504Z,14.90
2022-09-07T08:25:54.659Z,15.80
2022-09-07T08:28:24.023Z,15.48
2022-09-07T08:30:51.549Z,14.95
2022-09-07T08:33:20.452Z,16.00
2022-09-07T08:35:59.031Z,14.48
2022-09-07T08:38:30.510Z,14.98
2022-09-07T08:40:57.982Z,14.00
2022-09-07T08:44:06.241Z,14.80
2022-09-07T08:46:45.466Z,15.20
2022-09-07T08:49:31.285Z,14.18
2022-09-07T08:52:09.199Z,13.10
2022-09-07T08:54:39.131Z,13.63
2022-09-07T08:57:28.271Z,14.05
2022-09-07T09:00:16.629Z,12.98
2022-09-07T09:02:44.658Z,13.32
2022-09-07T09:05:46.232Z,13.90
2022-09-07T09:08:18.406Z,13.02
2022-09-07T09:11:09.571Z,12.75
2022-09-07T09:13:44.178Z,13.23
2022-09-07T09:16:20.018Z,11.18
2022-09-07T09:18:52.929Z,11.98
2022-09-07T09:21:19.823Z,10.38
2022-09-07T09:23:53.623Z,8.63
2022-09-07T09:26:25.734Z,9.43
2022-09-07T09:28:56.253Z,8.63
2022-09-07T09:31:36.726Z,7.68
2022-09-07T09:34:07.345Z,8.40
2022-09-07T09:36:50.959Z,7.97
2022-09-07T09:39:35.630Z,7.25
2022-09-07T09:42:14.462Z,5.75
2022-09-07T09:44:44.280Z,5.05
2022-09-07T09:47:34.533Z,5.70
2022-09-07T09:53:40.261Z,5.72
2022-09-07T09:56:10.175Z,4.72
2022-09-07T10:01:36.864Z,4.53
2022-09-07T10:04:35.952Z,5.55
2022-09-07T10:07:10.629Z,6.10
2022-09-07T10:09:41.019Z,5.15
2022-09-07T10:12:24.529Z,4.85
2022-09-07T10:14:54.204Z,3.60
2022-09-07T10:17:41.673Z,3.53
2022-09-07T10:20:18.632Z,3.22
2022-09-07T10:22:55.084Z,3.20
2022-09-07T10:25:46.343Z,3.28
2022-09-07T10:28:25.323Z,3.08
2022-09-07T10:31:14.750Z,2.80
2022-09-07T10:34:32.536Z,2.85
2022-09-07T10:37:11.412Z,2.38
2022-09-07T10:39:42.478Z,2.33
2022-09-07T10:42:32.207Z,2.42
2022-09-07T10:45:21.825Z,2.10
2022-09-07T10:48:05.783Z,2.50
2022-09-07T10:50:56.840Z,1.90
2022-09-07T10:53:44.177Z,2.20
2022-09-07T10:56:28.453Z,1.67
2022-09-07T10:59:08.834Z,2.10
2022-09-07T11:01:55.078Z,2.17
2022-09-07T11:04:40.666Z,1.80
2022-09-07T11:07:19.203Z,1.83
2022-09-07T11:09:51.945Z,1.70
2022-09-07T11:12:26.027Z,1.60
2022-09-07T11:15:14.215Z,2.22
2022-09-07T11:17:56.517Z,1.85
2022-09-07T11:20:38.565Z,2.40
2022-09-07T11:23:33.045Z,2.00
2022-09-07T11:26:07.442Z,2.03
2022-09-07T11:28:46.386Z,2.00
2022-09-07T11:31:22.163Z,1.52
2022-09-07T11:36:58.983Z,1.75
2022-09-07T11:39:30.707Z,2.03
2022-09-07T11:45:13.598Z,1.65
2022-09-07T11:47:51.881Z,1.80
2022-09-07T11:50:22.543Z,1.80
2022-09-07T11:53:05.977Z,1.55
2022-09-07T11:55:38.353Z,1.98
2022-09-07T11:58:44.487Z,1.95
2022-09-07T12:01:28.811Z,1.45
2022-09-07T12:04:15.428Z,1.77
2022-09-07T12:07:02.226Z,1.48
2022-09-07T12:09:59.932Z,1.45
2022-09-07T12:12:42.167Z,1.60
2022-09-07T12:15:37.625Z,1.63
2022-09-07T12:18:39.446Z,1.48
2022-09-07T12:21:46.195Z,1.38
2022-09-07T12:24:41.071Z,1.33
2022-09-07T12:27:31.776Z,1.70
2022-09-07T12:29:58.275Z,1.70
2022-09-07T12:32:54.519Z,1.40
2022-09-07T12:35:31.078Z,1.20
2022-09-07T12:38:02.001Z,1.48
2022-09-07T12:40:32.275Z,1.40
2022-09-07T12:43:13.942Z,1.42
2022-09-07T12:45:40.573Z,1.30
2022-09-07T12:48:12.619Z,1.20
2022-09-07T12:50:53.576Z,1.35
2022-09-07T12:53:52.145Z,1.50
2022-09-07T12:56:24.859Z,1.55
2022-09-07T12:59:21.859Z,1.00
2022-09-07T13:02:11.962Z,1.23
2022-09-07T13:04:50.740Z,1.17
2022-09-07T13:07:35.789Z,1.33
2022-09-07T13:10:07.792Z,1.40
2022-09-07T13:12:57.893Z,1.50
2022-09-07T13:15:49.036Z,0.95
2022-09-07T13:18:27.517Z,1.50
2022-09-07T13:21:17.446Z,1.10
2022-09-07T13:27:06.066Z,1.20
2022-09-07T13:29:38.510Z,1.20
2022-09-07T13:32:20.271Z,1.15
2022-09-07T13:35:06.101Z,1.30
2022-09-07T13:37:40.003Z,1.20
2022-09-07T13:40:11.790Z,1.20
2022-09-07T13:42:45.702Z,1.27
2022-09-07T13:45:27.126Z,0.80
2022-09-07T13:48:19.445Z,1.02
2022-09-07T13:51:06.395Z,1.17
2022-09-07T13:54:03.327Z,0.73
2022-09-07T13:56:40.707Z,1.10
2022-09-07T13:59:27.446Z,0.93
2022-09-07T14:01:55.216Z,1.30
2022-09-07T14:04:29.667Z,1.02
2022-09-07T14:07:13.042Z,1.00
2022-09-07T14:09:39.968Z,0.80
2022-09-07T14:12:16.285Z,1.00
2022-09-07T14:14:42.947Z,1.08
2022-09-07T14:17:15.353Z,0.90
2022-09-07T14:19:48.300Z,0.77
2022-09-07T14:22:20.306Z,0.68
2022-09-07T14:24:48.538Z,0.90
2022-09-07T14:27:39.980Z,0.85
2022-09-07T14:30:16.901Z,0.85
2022-09-07T14:32:44.160Z,0.90
2022-09-07T14:35:19.619Z,0.80
2022-09-07T14:37:47.448Z,0.90
2022-09-07T14:40:19.552Z,0.80
2022-09-07T14:42:47.320Z,0.60
2022-09-07T14:45:22.613Z,0.82
2022-09-07T14:47:54.553Z,0.75
2022-09-07T14:50:24.653Z,0.77
2022-09-07T14:55:42.917Z,0.80
2022-09-07T14:58:15.328Z,0.90
2022-09-07T15:00:47.516Z,0.73
2022-09-07T15:03:54.004Z,0.90
2022-09-07T15:09:36.187Z,0.93
2022-09-07T15:12:18.931Z,0.80
2022-09-07T15:14:47.895Z,0.70
2022-09-07T15:17:48.303Z,0.90
2022-09-07T15:20:34.988Z,0.80
2022-09-07T15:23:05.200Z,0.70
2022-09-07T15:25:36.994Z,0.77
2022-09-07T15:28:03.847Z,0.80
2022-09-07T15:30:33.522Z,0.60
2022-09-07T15:33:00.430Z,0.63
2022-09-07T15:35:27.067Z,0.57
2022-09-07T15:38:02.429Z,0.80
2022-09-07T15:41:03.620Z,0.70
2022-09-07T15:43:28.548Z,0.80
2022-09-07T15:45:55.735Z,0.60
2022-09-07T15:48:25.939Z,0.70
2022-09-07T15:51:01.535Z,0.93
2022-09-07T15:56:20.332Z,0.70
2022-09-07T15:58:56.389Z,1.10
2022-09-07T16:04:15.801Z,0.80
2022-09-07T16:06:47.866Z,1.00
2022-09-07T16:09:15.507Z,0.93
2022-09-07T16:11:42.086Z,0.70
2022-09-07T16:14:11.758Z,1.05
2022-09-07T16:19:25.114Z,0.90
2022-09-07T16:21:51.685Z,1.02
2022-09-07T16:24:18.277Z,0.70
2022-09-07T16:26:44.937Z,0.95
2022-09-07T16:29:11.672Z,0.82
2022-09-07T16:32:44.000Z,0.80
2022-09-07T16:34:27.054Z,1.02
2022-09-07T16:36:53.613Z,1.00
2022-09-07T16:39:20.387Z,0.60
2022-09-07T16:41:51.891Z,1.08
2022-09-07T16:44:18.989Z,0.82
2022-09-07T16:46:45.543Z,1.10
2022-09-07T16:49:12.344Z,1.08
2022-09-07T16:51:39.687Z,0.95
2022-09-07T16:54:08.741Z,1.00
2022-09-07T16:56:38.950Z,1.00
2022-09-07T16:59:11.074Z,1.17
2022-09-07T17:01:38.094Z,1.35
2022-09-07T17:04:10.307Z,0.65
2022-09-07T17:06:38.082Z,0.70
2022-09-07T17:09:07.539Z,0.90
2022-09-07T17:11:37.429Z,0.95
2022-09-07T17:14:06.796Z,1.00
2022-09-07T17:16:36.901Z,0.90
2022-09-07T17:21:55.495Z,0.98
2022-09-07T17:24:24.117Z,0.70
2022-09-07T17:26:50.708Z,1.00
2022-09-07T17:29:17.303Z,1.00
2022-09-07T17:34:33.740Z,1.15
2022-09-07T17:37:01.238Z,1.00
2022-09-07T17:39:28.603Z,0.90
2022-09-07T17:41:55.275Z,1.00
2022-09-07T17:44:23.574Z,0.80
2022-09-07T17:46:50.724Z,0.90
2022-09-07T17:49:17.837Z,1.20
2022-09-07T17:51:47.360Z,1.20
2022-09-07T17:54:17.369Z,1.10
2022-09-07T17:56:45.990Z,1.15
2022-09-07T18:02:02.086Z,1.23
2022-09-07T18:04:28.982Z,1.10
2022-09-07T18:06:58.224Z,1.20
2022-09-07T18:09:24.773Z,1.15
2022-09-07T18:11:51.426Z,1.17
2022-09-07T18:14:19.166Z,1.33
2022-09-07T18:16:48.815Z,1.63
2022-09-07T18:19:15.859Z,1.40
2022-09-07T18:21:43.640Z,1.17
2022-09-07T18:24:19.227Z,1.60
2022-09-07T18:26:51.250Z,1.00
2022-09-07T18:29:33.876Z,0.88
2022-09-07T18:32:08.074Z,1.10
2022-09-07T18:34:36.330Z,1.67
2022-09-07T18:37:05.495Z,0.85
2022-09-07T18:39:33.465Z,1.33
2022-09-07T18:42:00.061Z,1.20
2022-09-07T18:47:27.932Z,1.55
2022-09-07T18:49:55.200Z,1.40
2022-09-07T18:55:11.396Z,1.10
2022-09-07T18:57:38.606Z,1.55
2022-09-07T19:00:07.865Z,1.60
2022-09-07T19:02:35.542Z,1.10
2022-09-07T19:07:48.947Z,1.23
2022-09-07T19:10:16.852Z,1.30
2022-09-07T19:12:45.914Z,1.40
2022-09-07T19:15:15.258Z,1.40
2022-09-07T19:17:41.898Z,1.30
2022-09-07T19:20:09.193Z,1.15
2022-09-07T19:22:35.766Z,1.33
2022-09-07T19:25:02.287Z,0.90
2022-09-07T19:27:33.002Z,1.15
2022-09-07T19:29:59.642Z,1.27
2022-09-07T19:32:26.174Z,1.08
2022-09-07T19:34:54.689Z,1.20
2022-09-07T19:37:28.826Z,1.20
2022-09-07T19:39:59.119Z,1.10
2022-09-07T19:42:25.948Z,1.02
2022-09-07T19:44:54.086Z,1.30
2022-09-07T19:47:21.778Z,1.45
2022-09-07T19:49:48.354Z,1.25
2022-09-07T19:52:15.441Z,1.10
2022-09-07T19:54:44.412Z,1.40
2022-09-07T19:57:11.095Z,1.40
2022-09-07T19:59:37.627Z,1.30
2022-09-07T20:02:07.450Z,1.50
2022-09-07T20:04:36.206Z,2.00
2022-09-07T20:07:03.013Z,1.30
2022-09-07T20:09:29.571Z,1.50
2022-09-07T20:11:56.097Z,2.17
2022-09-07T20:14:22.631Z,3.70
2022-09-07T20:16:49.194Z,2.53
2022-09-07T20:19:15.854Z,2.00
2022-09-07T20:21:42.865Z,2.08
2022-09-07T20:24:12.040Z,1.63
2022-09-07T20:26:38.590Z,1.90
2022-09-07T20:29:26.246Z,1.83
2022-09-07T20:31:53.606Z,1.73
2022-09-07T20:34:20.390Z,2.00
2022-09-07T20:36:49.467Z,2.35
2022-09-07T20:39:16.480Z,2.08
2022-09-07T20:41:45.527Z,2.70
2022-09-07T20:44:12.217Z,3.10
2022-09-07T20:46:38.811Z,2.78
2022-09-07T20:49:05.764Z,3.20
2022-09-07T20:51:32.500Z,2.75
2022-09-07T20:53:59.211Z,3.42
2022-09-07T20:56:27.974Z,2.70
2022-09-07T20:59:00.468Z,3.30
2022-09-07T21:01:28.566Z,2.63
2022-09-07T21:03:57.264Z,2.80
2022-09-07T21:06:25.155Z,2.75
2022-09-07T21:08:52.410Z,2.95
2022-09-07T21:11:27.583Z,3.15
2022-09-07T21:13:59.330Z,3.10
2022-09-07T21:16:29.200Z,3.50
2022-09-07T21:19:00.425Z,3.35
2022-09-07T21:21:29.897Z,3.67
2022-09-07T21:23:59.433Z,3.80
2022-09-07T21:26:30.146Z,4.25
2022-09-07T21:29:01.106Z,3.40
2022-09-07T21:31:31.947Z,3.30
2022-09-07T21:34:00.293Z,3.35
2022-09-07T21:36:29.479Z,3.30
2022-09-07T21:38:58.572Z,3.00
2022-09-07T21:41:25.624Z,2.85
2022-09-07T21:43:59.816Z,2.53
2022-09-07T21:46:27.567Z,2.90
2022-09-07T21:48:55.738Z,3.10
2022-09-07T21:51:27.828Z,3.05
2022-09-07T21:54:00.874Z,3.38
2022-09-07T21:56:29.461Z,2.90
2022-09-07T21:58:58.208Z,3.00
2022-09-07T22:01:26.514Z,2.92
2022-09-07T22:03:59.006Z,2.83
2022-09-07T22:06:32.275Z,2.35
2022-09-07T22:09:02.709Z,2.90
2022-09-07T22:11:32.239Z,3.38
2022-09-07T22:14:01.815Z,2.90
2022-09-07T22:16:29.278Z,2.55
2022-09-07T22:19:01.079Z,3.20
2022-09-07T22:21:29.118Z,3.00
2022-09-07T22:24:04.068Z,3.50
2022-09-07T22:26:37.627Z,4.30
2022-09-07T22:29:06.455Z,3.45
2022-09-07T22:31:35.360Z,2.80
2022-09-07T22:34:04.226Z,2.80
2022-09-07T22:36:42.360Z,3.13
2022-09-07T22:39:15.196Z,3.17
2022-09-07T22:41:45.749Z,6.82
2022-09-07T22:44:16.321Z,3.20
2022-09-07T22:46:44.451Z,3.28
2022-09-07T22:49:15.916Z,3.92
2022-09-07T22:51:45.440Z,2.95
2022-09-07T22:54:12.302Z,3.50
2022-09-07T22:56:41.673Z,3.35
2022-09-07T22:59:12.174Z,3.28
2022-09-07T23:01:39.506Z,3.88
2022-09-07T23:04:09.204Z,3.00
2022-09-07T23:06:38.560Z,3.42
2022-09-07T23:09:08.151Z,3.38
2022-09-07T23:11:35.209Z,3.10
2022-09-07T23:14:04.406Z,3.40
2022-09-07T23:16:31.067Z,3.17
2022-09-07T23:18:59.172Z,3.75
2022-09-07T23:21:27.371Z,3.40
2022-09-07T23:23:56.901Z,3.80
2022-09-07T23:26:25.090Z,3.85
2022-09-07T23:28:53.184Z,3.40
2022-09-07T23:31:20.434Z,2.97
2022-09-07T23:33:47.228Z,2.90
2022-09-07T23:36:17.349Z,3.58
2022-09-07T23:38:47.075Z,3.30
2022-09-07T23:41:18.012Z,3.08
2022-09-07T23:43:46.832Z,3.42
2022-09-07T23:46:16.609Z,2.78
2022-09-07T23:48:47.428Z,3.60
2022-09-07T23:51:14.759Z,3.13
2022-09-07T23:53:41.392Z,3.90
2022-09-07T23:56:11.545Z,3.28
2022-09-07T23:58:38.812Z,3.65
